Time;durP1;ratioP1;P1;durP2;ratioP2;P2;SDS_P1;SDS_P2;PMS_P1;PMS_P2;Temp;Humidity;BMP_temperature;BMP_pressure;BME280_temperature;BME280_humidity;BME280_pressure;Samples;Min_cycle;Max_cycle;Signal;HPM_P1;HPM_P2
2022/04/11 03:00:36;;;;;;;0.70;0.70;;;6.00;73.10;;;;;;5955002;23;20377;31
2022/04/11 03:03:04;;;;;;;1.00;0.90;;;6.00;73.10;;;;;;4881478;29;20451;-79
2022/04/11 03:05:31;;;;;;;1.20;1.10;;;6.10;73.10;;;;;;4882380;29;20888;-78
2022/04/11 03:07:57;;;;;;;0.90;0.90;;;6.10;73.20;;;;;;4885857;29;20450;-79
2022/04/11 03:10:24;;;;;;;0.80;0.80;;;6.10;73.30;;;;;;4884080;29;20450;-79
2022/04/11 03:12:51;;;;;;;1.00;0.90;;;6.10;73.60;;;;;;4901752;29;20825;-79
2022/04/11 03:15:17;;;;;;;0.87;0.87;;;6.10;73.70;;;;;;5007467;23;20973;-72
2022/04/11 03:17:44;;;;;;;0.90;0.90;;;6.10;73.60;;;;;;4938761;29;20431;-72
2022/04/11 03:20:12;;;;;;;0.80;0.80;;;6.10;73.40;;;;;;4938546;29;20495;-72
2022/04/11 03:22:39;;;;;;;0.90;0.90;;;6.20;73.50;;;;;;4938470;29;20522;-72
2022/04/11 03:25:07;;;;;;;0.90;0.90;;;6.20;73.50;;;;;;4938071;29;20879;-72
2022/04/11 03:27:34;;;;;;;0.80;0.80;;;6.20;73.50;;;;;;4938218;29;20796;-72
2022/04/11 03:30:00;;;;;;;0.90;0.90;;;6.20;73.40;;;;;;4936917;29;20511;-72
2022/04/11 03:32:27;;;;;;;0.90;0.90;;;6.20;73.20;;;;;;4938273;29;20538;-71
2022/04/11 03:34:54;;;;;;;1.00;1.00;;;6.20;73.40;;;;;;4937760;29;20991;-71
2022/04/11 03:37:23;;;;;;;1.00;1.00;;;6.20;73.50;;;;;;4937935;29;21002;-71
2022/04/11 03:39:50;;;;;;;1.00;1.00;;;6.20;73.50;;;;;;4938174;29;20458;-71
2022/04/11 03:42:17;;;;;;;1.00;1.00;;;6.20;73.60;;;;;;4938163;29;20458;-72
2022/04/11 03:44:43;;;;;;;1.10;1.10;;;6.20;73.60;;;;;;4938281;29;20448;-72
2022/04/11 03:47:10;;;;;;;0.93;0.93;;;6.20;73.60;;;;;;4938209;29;20444;-71
2022/04/11 03:49:37;;;;;;;0.90;0.90;;;6.10;73.50;;;;;;4937993;29;20447;-71
2022/04/11 03:52:04;;;;;;;1.10;1.10;;;6.10;73.60;;;;;;4938515;29;20452;-71
2022/04/11 03:54:32;;;;;;;1.20;1.20;;;6.10;73.70;;;;;;4937693;29;20914;-71
2022/04/11 03:56:59;;;;;;;1.37;1.27;;;6.10;73.80;;;;;;4938039;29;20484;-71
2022/04/11 03:59:26;;;;;;;0.90;0.90;;;6.10;74.00;;;;;;4937864;29;21014;-71
2022/04/11 04:01:52;;;;;;;0.90;0.90;;;6.10;74.10;;;;;;4938046;29;20447;-72
2022/04/11 04:04:19;;;;;;;1.30;1.20;;;6.00;74.10;;;;;;4937890;29;20476;-71
2022/04/11 04:06:46;;;;;;;1.07;0.97;;;6.00;74.00;;;;;;4937655;29;20472;-73
2022/04/11 04:09:12;;;;;;;0.90;0.90;;;6.00;74.00;;;;;;4937377;29;20444;-71
2022/04/11 04:11:40;;;;;;;1.20;1.10;;;6.00;73.80;;;;;;4937544;29;20512;-72
2022/04/11 04:14:07;;;;;;;0.90;0.90;;;6.00;73.70;;;;;;4937421;29;20456;-72
2022/04/11 04:16:33;;;;;;;1.03;1.00;;;6.00;73.80;;;;;;4936908;29;20479;-72
2022/04/11 04:19:00;;;;;;;1.30;1.20;;;6.00;73.70;;;;;;4936930;29;20884;-71
2022/04/11 04:21:27;;;;;;;1.10;1.00;;;6.00;73.90;;;;;;4936973;29;20507;-72
2022/04/11 04:23:54;;;;;;;0.90;0.90;;;6.00;74.00;;;;;;4942265;29;20458;-70
2022/04/11 04:26:20;;;;;;;1.20;1.10;;;6.00;74.00;;;;;;4941680;29;21132;-71
2022/04/11 04:28:48;;;;;;;0.90;0.90;;;6.00;73.80;;;;;;4939680;29;20448;-73
2022/04/11 04:31:15;;;;;;;0.80;0.80;;;6.00;73.80;;;;;;4939674;29;20448;-72
2022/04/11 04:33:42;;;;;;;1.00;1.00;;;5.90;73.60;;;;;;4937217;29;20452;-72
2022/04/11 04:36:08;;;;;;;1.00;1.00;;;5.90;73.60;;;;;;4936638;29;20500;-73
2022/04/11 04:38:35;;;;;;;1.27;1.00;;;5.90;73.70;;;;;;4936555;29;20879;-72
2022/04/11 04:41:02;;;;;;;0.90;0.90;;;5.90;73.80;;;;;;4937275;29;20821;-72
2022/04/11 04:43:28;;;;;;;0.90;0.90;;;5.80;73.80;;;;;;4937120;29;20946;-72
2022/04/11 04:45:56;;;;;;;0.90;0.90;;;5.80;73.80;;;;;;4937450;29;20464;-72
2022/04/11 04:48:23;;;;;;;1.10;1.00;;;5.90;73.80;;;;;;4937386;29;20448;-73
2022/04/11 04:50:50;;;;;;;1.20;1.10;;;5.80;73.70;;;;;;4937235;29;20507;-72
2022/04/11 04:53:17;;;;;;;0.90;0.90;;;5.80;73.80;;;;;;4937186;29;20455;-72
2022/04/11 04:55:44;;;;;;;1.20;0.90;;;5.80;73.70;;;;;;4936872;29;20496;-72
2022/04/11 04:58:10;;;;;;;0.80;0.80;;;5.80;73.90;;;;;;4936656;29;20451;-72
2022/04/11 05:00:37;;;;;;;0.80;0.80;;;5.80;73.80;;;;;;4936590;29;20510;-72
2022/04/11 05:03:05;;;;;;;0.90;0.90;;;5.80;73.80;;;;;;4936605;29;20499;-72
2022/04/11 05:05:32;;;;;;;0.90;0.90;;;5.80;73.70;;;;;;4936414;29;20527;-72
2022/04/11 05:07:58;;;;;;;1.00;1.00;;;5.80;73.70;;;;;;4936509;29;20452;-72
2022/04/11 05:10:25;;;;;;;0.90;0.90;;;5.80;73.60;;;;;;4936461;29;20460;-72
2022/04/11 05:12:52;;;;;;;1.20;1.10;;;5.80;73.50;;;;;;4936091;29;20790;-72
2022/04/11 05:15:19;;;;;;;1.00;1.00;;;5.70;73.10;;;;;;4936044;29;20554;-71
2022/04/11 05:17:45;;;;;;;0.90;0.90;;;5.70;73.40;;;;;;4936095;29;20487;-71
2022/04/11 05:20:13;;;;;;;1.07;0.97;;;5.70;73.60;;;;;;4936200;29;20451;-72
2022/04/11 05:22:40;;;;;;;1.10;1.00;;;5.80;73.70;;;;;;4936141;29;20476;-71
2022/04/11 05:25:07;;;;;;;0.90;0.80;;;5.90;73.60;;;;;;4935965;29;20500;-72
2022/04/11 05:27:34;;;;;;;0.90;0.90;;;5.90;73.30;;;;;;4935906;29;20459;-72
2022/04/11 05:30:05;;;;;;;1.00;0.90;;;6.00;72.80;;;;;;4936043;29;20448;-72
2022/04/11 05:32:32;;;;;;;0.83;0.83;;;5.80;73.00;;;;;;4936063;29;20440;-72
2022/04/11 05:34:58;;;;;;;1.00;0.90;;;5.90;73.40;;;;;;4935539;29;20484;-72
2022/04/11 05:37:26;;;;;;;1.00;1.00;;;6.10;73.30;;;;;;4935922;29;20498;-71
2022/04/11 05:39:53;;;;;;;0.90;0.90;;;6.20;72.70;;;;;;4935617;29;20869;-71
2022/04/11 05:42:20;;;;;;;0.90;0.90;;;6.50;72.40;;;;;;4935637;29;20998;-71
2022/04/11 05:44:46;;;;;;;1.00;1.00;;;6.90;71.30;;;;;;4935887;29;20443;-71
2022/04/11 05:47:13;;;;;;;0.80;0.80;;;7.00;70.40;;;;;;4935540;29;21015;-73
2022/04/11 05:49:40;;;;;;;1.00;1.00;;;7.10;69.50;;;;;;4935848;29;20456;-72
2022/04/11 05:52:08;;;;;;;0.80;0.80;;;7.30;69.40;;;;;;4935750;29;20547;-73
2022/04/11 05:54:38;;;;;;;0.90;0.90;;;7.60;69.00;;;;;;4935231;29;20535;-73
2022/04/11 05:57:05;;;;;;;1.20;1.10;;;7.90;68.30;;;;;;4935767;29;20487;-73
2022/04/11 05:59:32;;;;;;;0.90;0.90;;;8.20;68.20;;;;;;4935758;29;20447;-72
2022/04/11 06:01:59;;;;;;;1.10;1.10;;;8.30;66.40;;;;;;4935713;29;20527;-72
2022/04/11 06:04:25;;;;;;;0.87;0.87;;;8.70;66.70;;;;;;4935806;29;20877;-72
2022/04/11 06:06:52;;;;;;;0.97;0.87;;;9.80;65.30;;;;;;4935340;29;21054;-72
2022/04/11 06:09:18;;;;;;;1.10;1.00;;;11.00;61.70;;;;;;4935450;29;20456;-72
2022/04/11 06:11:46;;;;;;;0.90;0.90;;;12.10;58.30;;;;;;4935754;29;20484;-73
2022/04/11 06:14:13;;;;;;;1.03;0.93;;;13.10;55.70;;;;;;4935643;29;20469;-73
2022/04/11 06:16:40;;;;;;;0.90;0.90;;;14.30;53.80;;;;;;4935162;29;20499;-73
2022/04/11 06:19:06;;;;;;;0.80;0.80;;;15.40;50.80;;;;;;4935713;29;20452;-73
2022/04/11 06:21:33;;;;;;;0.80;0.80;;;16.70;49.30;;;;;;4935837;29;20475;-73
2022/04/11 06:24:00;;;;;;;0.80;0.80;;;16.60;46.40;;;;;;4935771;29;20504;-73
2022/04/11 06:26:26;;;;;;;1.27;0.90;;;16.30;47.80;;;;;;4935661;29;20503;-73
2022/04/11 06:28:54;;;;;;;1.00;0.90;;;16.50;46.50;;;;;;4935615;29;20464;-73
2022/04/11 06:31:21;;;;;;;0.90;0.90;;;16.20;47.00;;;;;;4935645;29;20489;-73
2022/04/11 06:33:48;;;;;;;0.80;0.80;;;16.50;46.50;;;;;;4935296;29;20946;-74
2022/04/11 06:36:14;;;;;;;0.80;0.80;;;17.00;47.80;;;;;;4935527;29;20555;-74
2022/04/11 06:38:41;;;;;;;1.10;1.00;;;18.30;46.20;;;;;;4935321;29;20940;-73
2022/04/11 06:41:08;;;;;;;0.80;0.80;;;19.60;43.80;;;;;;4935331;29;21014;-73
2022/04/11 06:43:34;;;;;;;1.00;0.90;;;20.30;41.90;;;;;;4935662;29;20447;-73
2022/04/11 06:46:02;;;;;;;0.80;0.80;;;20.20;41.40;;;;;;4935597;29;20519;-74
2022/04/11 06:48:30;;;;;;;1.10;0.90;;;20.50;41.20;;;;;;4935576;29;20464;-72
2022/04/11 06:50:57;;;;;;;0.70;0.70;;;19.80;40.90;;;;;;4935608;29;20455;-73
2022/04/11 06:53:23;;;;;;;0.80;0.80;;;19.50;41.80;;;;;;4936999;29;20605;-74
2022/04/11 06:55:50;;;;;;;1.00;1.00;;;19.50;42.00;;;;;;4935474;29;20480;-74
2022/04/11 06:58:17;;;;;;;0.97;0.97;;;18.60;43.60;;;;;;4935580;29;20499;-73
2022/04/11 07:00:44;;;;;;;1.10;1.00;;;17.20;44.30;;;;;;4935535;29;20459;-72
2022/04/11 07:03:12;;;;;;;0.80;0.80;;;16.70;46.80;;;;;;4935550;29;20451;-73
2022/04/11 07:05:40;;;;;;;0.90;0.90;;;15.90;48.60;;;;;;4938110;29;20468;-72
2022/04/11 07:08:08;;;;;;;1.17;1.00;;;15.30;50.60;;;;;;4938498;29;20828;-72
2022/04/11 07:10:37;;;;;;;0.70;0.70;;;14.70;52.30;;;;;;4938746;29;20534;-72
2022/04/11 07:13:03;;;;;;;0.87;0.87;;;14.30;51.90;;;;;;4938670;29;20456;-72
2022/04/11 07:15:30;;;;;;;1.00;1.00;;;13.80;53.30;;;;;;4938460;29;20499;-73
2022/04/11 07:17:57;;;;;;;0.90;0.90;;;13.40;55.60;;;;;;4938665;29;20471;-72
2022/04/11 07:20:25;;;;;;;1.10;1.00;;;12.90;56.50;;;;;;4938651;29;20456;-73
2022/04/11 07:22:51;;;;;;;0.90;0.90;;;13.10;56.40;;;;;;4938542;29;20448;-72
2022/04/11 07:25:18;;;;;;;1.10;1.10;;;13.00;55.90;;;;;;4938483;29;20822;-73
2022/04/11 07:27:44;;;;;;;0.90;0.90;;;12.50;58.00;;;;;;4938474;29;20478;-72
2022/04/11 07:30:12;;;;;;;1.30;1.20;;;12.20;59.40;;;;;;4938169;29;21005;-72
2022/04/11 07:32:39;;;;;;;1.20;1.10;;;12.00;60.00;;;;;;4938145;29;20939;-72
2022/04/11 07:35:06;;;;;;;0.83;0.83;;;11.90;59.90;;;;;;4937992;29;21054;-72
2022/04/11 07:37:34;;;;;;;0.90;0.90;;;11.90;60.40;;;;;;4938364;29;20452;-71
2022/04/11 07:40:02;;;;;;;1.00;0.97;;;11.70;60.00;;;;;;4938256;29;20451;-72
2022/04/11 07:42:29;;;;;;;0.80;0.80;;;11.50;60.40;;;;;;4938207;29;20570;-72
2022/04/11 07:44:55;;;;;;;0.90;0.90;;;11.40;60.00;;;;;;4938129;29;20456;-72
2022/04/11 07:47:22;;;;;;;0.80;0.80;;;11.50;59.40;;;;;;4938236;29;20451;-72
2022/04/11 07:49:49;;;;;;;0.80;0.80;;;11.50;57.60;;;;;;4938109;29;20452;-72
2022/04/11 07:52:16;;;;;;;0.90;0.90;;;11.30;57.80;;;;;;4938057;29;20455;-73
2022/04/11 07:54:44;;;;;;;0.90;0.90;;;11.50;60.20;;;;;;4938010;29;20568;-72
2022/04/11 07:57:11;;;;;;;1.10;0.80;;;12.00;58.80;;;;;;4938358;29;20546;-72
2022/04/11 07:59:37;;;;;;;0.70;0.70;;;12.00;58.10;;;;;;4937943;29;20495;-72
2022/04/11 08:02:04;;;;;;;0.80;0.80;;;12.10;57.90;;;;;;4937891;29;20487;-72
2022/04/11 08:04:32;;;;;;;0.80;0.80;;;12.00;58.30;;;;;;4937841;29;20483;-72
2022/04/11 08:06:59;;;;;;;0.90;0.90;;;12.00;56.80;;;;;;4937779;29;20472;-72
2022/04/11 08:09:26;;;;;;;0.80;0.80;;;11.80;56.10;;;;;;4937773;29;20519;-73
2022/04/11 08:11:54;;;;;;;1.10;1.10;;;11.60;56.60;;;;;;4937664;29;20462;-72
2022/04/11 08:14:20;;;;;;;0.90;0.80;;;11.50;56.60;;;;;;4937652;29;20507;-72
2022/04/11 08:16:47;;;;;;;0.73;0.73;;;11.50;57.90;;;;;;4936525;29;20587;-72
2022/04/11 08:19:14;;;;;;;0.70;0.70;;;11.70;58.60;;;;;;4937622;29;20456;-73
2022/04/11 08:21:41;;;;;;;0.80;0.80;;;11.70;58.50;;;;;;4937549;29;20447;-73
2022/04/11 08:24:07;;;;;;;0.90;0.90;;;11.80;57.50;;;;;;4937656;29;20503;-72
2022/04/11 08:26:34;;;;;;;0.80;0.80;;;12.30;58.40;;;;;;4937993;29;20460;-71
2022/04/11 08:29:02;;;;;;;0.80;0.80;;;12.20;54.90;;;;;;4938231;29;20448;-72
2022/04/11 08:31:29;;;;;;;0.90;0.80;;;12.30;54.40;;;;;;4938624;29;20452;-73
2022/04/11 08:33:56;;;;;;;0.80;0.80;;;12.00;56.40;;;;;;4943562;29;20508;-72
2022/04/11 08:36:24;;;;;;;0.80;0.80;;;12.00;55.10;;;;;;4958380;29;20476;-72
2022/04/11 08:38:52;;;;;;;0.77;0.77;;;11.90;57.60;;;;;;4949761;29;20535;-72
2022/04/11 08:41:19;;;;;;;0.90;0.70;;;12.00;57.30;;;;;;4937793;29;20455;-73
2022/04/11 08:43:46;;;;;;;0.77;0.73;;;12.10;56.80;;;;;;4937417;29;20452;-72
2022/04/11 08:46:18;;;;;;;1.90;0.90;;;12.20;56.10;;;;;;4937630;29;20546;-73
2022/04/11 08:48:44;;;;;;;0.80;0.80;;;12.40;57.70;;;;;;4937381;29;20866;-72
2022/04/11 08:51:11;;;;;;;0.70;0.70;;;12.50;56.60;;;;;;4937193;29;20503;-72
2022/04/11 08:53:38;;;;;;;0.70;0.70;;;12.50;55.60;;;;;;4937094;29;20447;-72
2022/04/11 08:56:05;;;;;;;0.80;0.80;;;12.30;56.30;;;;;;4936979;29;20494;-72
2022/04/11 08:58:32;;;;;;;0.70;0.70;;;12.30;56.50;;;;;;4937394;29;20464;-72
2022/04/11 09:00:59;;;;;;;0.70;0.70;;;12.20;55.70;;;;;;4936798;29;20998;-72
2022/04/11 09:03:27;;;;;;;1.00;0.70;;;12.10;55.60;;;;;;4936895;29;20460;-72
2022/04/11 09:06:05;;;;;;;0.73;0.73;;;12.20;55.00;;;;;;4936753;29;20483;-72
2022/04/11 09:08:42;;;;;;;0.60;0.60;;;12.20;54.50;;;;;;4937297;29;20463;-72
2022/04/11 09:11:09;;;;;;;0.70;0.70;;;12.20;55.50;;;;;;4936811;29;20447;-73
2022/04/11 09:13:51;;;;;;;0.70;0.70;;;12.10;56.50;;;;;;4936800;29;20503;-72
2022/04/11 09:16:17;;;;;;;0.70;0.70;;;12.10;56.60;;;;;;5049138;23;20499;-76
2022/04/11 09:18:50;;;;;;;0.80;0.70;;;12.30;56.10;;;;;;4936862;29;20451;-78
2022/04/11 09:21:17;;;;;;;0.80;0.80;;;12.20;56.30;;;;;;4936613;29;20452;-77
2022/04/11 09:23:44;;;;;;;0.70;0.60;;;12.20;55.10;;;;;;4937292;29;20447;-76
2022/04/11 09:26:21;;;;;;;0.70;0.63;;;11.90;54.00;;;;;;4936724;29;20468;-77
2022/04/11 09:29:00;;;;;;;0.70;0.60;;;12.00;53.90;;;;;;4935777;29;20963;-77
2022/04/11 09:31:27;;;;;;;0.90;0.90;;;12.20;53.70;;;;;;4936568;29;20871;-77
2022/04/11 09:33:55;;;;;;;0.80;0.80;;;12.30;54.40;;;;;;4936614;29;20541;-77
2022/04/11 09:36:22;;;;;;;0.70;0.60;;;12.30;54.10;;;;;;4936666;29;20539;-77
2022/04/11 09:38:59;;;;;;;0.70;0.70;;;12.50;54.20;;;;;;4936510;29;20460;-76
2022/04/11 09:41:29;;;;;;;0.70;0.70;;;12.50;55.40;;;;;;4936447;29;20490;-78
2022/04/11 09:43:56;;;;;;;0.80;0.70;;;12.70;52.80;;;;;;4936529;29;20454;-77
2022/04/11 09:46:23;;;;;;;0.70;0.70;;;12.80;53.60;;;;;;4935987;29;20523;-76
2022/04/11 09:48:53;;;;;;;0.80;0.80;;;12.80;52.00;;;;;;4936284;29;20460;-76
2022/04/11 09:51:21;;;;;;;1.90;0.80;;;12.60;52.40;;;;;;4936605;29;20454;-75
2022/04/11 09:53:48;;;;;;;0.70;0.70;;;12.70;52.10;;;;;;4936310;29;20455;-76
2022/04/11 09:56:17;;;;;;;0.70;0.70;;;12.80;53.90;;;;;;4935888;29;21010;-76
2022/04/11 09:58:43;;;;;;;0.70;0.70;;;13.00;52.40;;;;;;4936262;29;20452;-77
2022/04/11 10:01:11;;;;;;;0.90;0.70;;;13.00;50.90;;;;;;4936295;29;20452;-76
2022/04/11 10:03:39;;;;;;;0.70;0.60;;;12.80;51.30;;;;;;4936269;29;20551;-76
2022/04/11 10:06:06;;;;;;;1.00;0.60;;;12.90;51.40;;;;;;4936290;29;20468;-76
2022/04/11 10:08:34;;;;;;;1.00;0.90;;;13.10;52.40;;;;;;4936108;29;20538;-77
2022/04/11 10:11:01;;;;;;;0.70;0.70;;;13.20;49.40;;;;;;4936297;29;20455;-77
2022/04/11 10:13:29;;;;;;;0.60;0.60;;;13.30;49.70;;;;;;4936655;29;20462;-76
2022/04/11 10:15:55;;;;;;;0.80;0.70;;;13.40;49.50;;;;;;4935676;29;20476;-77
2022/04/11 10:18:26;;;;;;;1.83;0.67;;;13.40;49.30;;;;;;4936037;29;20452;-76
2022/04/11 10:20:58;;;;;;;0.73;0.73;;;13.50;51.50;;;;;;4936045;29;20462;-77
2022/04/11 10:23:31;;;;;;;0.67;0.63;;;13.40;49.50;;;;;;4936149;29;20450;-77
2022/04/11 10:26:01;;;;;;;1.47;0.70;;;13.40;49.70;;;;;;4935899;29;20554;-76
2022/04/11 10:28:29;;;;;;;0.70;0.70;;;13.50;49.00;;;;;;4935592;29;20884;-76
2022/04/11 10:31:08;;;;;;;0.70;0.70;;;13.50;48.80;;;;;;4936014;29;21030;-77
2022/04/11 10:33:46;;;;;;;0.70;0.50;;;13.70;49.00;;;;;;4936487;29;20536;-77
2022/04/11 10:36:33;;;;;;;0.70;0.60;;;13.60;47.80;;;;;;4935656;29;20503;-77
2022/04/11 10:39:25;;;;;;;0.70;0.70;;;13.70;47.50;;;;;;4935942;29;20444;-77
2022/04/11 10:42:16;;;;;;;0.60;0.53;;;13.60;47.20;;;;;;4939358;29;20534;-78
2022/04/11 10:44:45;;;;;;;0.60;0.60;;;13.90;47.90;;;;;;4939478;29;20440;-77
2022/04/11 10:47:32;;;;;;;0.60;0.60;;;14.10;47.70;;;;;;4939289;29;21004;-76
2022/04/11 10:50:21;;;;;;;0.60;0.60;;;14.20;48.10;;;;;;4938845;29;20821;-77
2022/04/11 10:52:56;;;;;;;0.60;0.60;;;14.20;48.80;;;;;;4939319;29;20448;-76
2022/04/11 10:55:23;;;;;;;0.67;0.60;;;14.30;48.20;;;;;;4938937;29;20491;-77
2022/04/11 10:57:54;;;;;;;0.70;0.70;;;14.10;47.90;;;;;;4938808;29;21002;-76
2022/04/11 11:00:22;;;;;;;0.73;0.73;;;14.30;48.40;;;;;;4939089;29;20506;-77
2022/04/11 11:03:08;;;;;;;0.60;0.60;;;14.50;47.70;;;;;;4938994;29;20455;-76
2022/04/11 11:05:38;;;;;;;0.70;0.60;;;14.80;47.70;;;;;;4938936;29;20479;-77
2022/04/11 11:08:27;;;;;;;0.70;0.60;;;15.00;47.20;;;;;;4939117;29;20503;-76
2022/04/11 11:10:55;;;;;;;0.70;0.70;;;14.70;45.60;;;;;;4939231;29;20491;-76
2022/04/11 11:13:29;;;;;;;0.70;0.60;;;14.50;44.40;;;;;;4938858;29;20547;-76
2022/04/11 11:15:57;;;;;;;0.80;0.80;;;14.60;45.50;;;;;;4939304;29;20833;-77
2022/04/11 11:18:24;;;;;;;0.70;0.70;;;14.60;43.40;;;;;;4939015;29;20471;-77
2022/04/11 11:20:53;;;;;;;0.70;0.60;;;14.90;46.30;;;;;;4945276;29;20491;-76
2022/04/11 11:23:30;;;;;;;0.73;0.63;;;15.00;43.30;;;;;;4943101;29;20494;-76
2022/04/11 11:26:08;;;;;;;0.70;0.60;;;15.00;45.60;;;;;;4944928;29;20482;-77
2022/04/11 11:28:37;;;;;;;0.70;0.60;;;15.30;46.00;;;;;;4944378;29;20436;-76
2022/04/11 11:31:04;;;;;;;0.70;0.70;;;15.60;46.60;;;;;;4944281;29;20463;-76
2022/04/11 11:33:31;;;;;;;0.60;0.60;;;15.70;45.70;;;;;;4945275;29;20488;-77
2022/04/11 11:35:58;;;;;;;0.80;0.70;;;15.50;45.40;;;;;;4944568;29;20479;-76
2022/04/11 11:38:28;;;;;;;0.70;0.70;;;15.50;45.60;;;;;;4943399;29;20487;-76
2022/04/11 11:40:56;;;;;;;0.70;0.70;;;15.60;46.50;;;;;;4940742;29;20448;-76
2022/04/11 11:43:23;;;;;;;0.73;0.73;;;15.70;45.90;;;;;;4940448;29;20456;-77
2022/04/11 11:45:52;;;;;;;0.63;0.63;;;15.90;44.50;;;;;;4938184;29;20519;-76
2022/04/11 11:48:22;;;;;;;0.70;0.70;;;16.30;45.30;;;;;;4937949;29;20936;-77
2022/04/11 11:50:49;;;;;;;0.70;0.60;;;16.30;43.20;;;;;;4937727;29;20589;-76
2022/04/11 11:53:15;;;;;;;0.87;0.70;;;15.90;43.20;;;;;;4937936;29;20515;-77
2022/04/11 11:55:52;;;;;;;0.90;0.70;;;15.60;42.10;;;;;;4938867;29;20479;-77
2022/04/11 11:58:18;;;;;;;0.60;0.60;;;15.70;43.30;;;;;;4938137;29;20471;-77
2022/04/11 12:00:47;;;;;;;0.70;0.67;;;15.90;44.20;;;;;;4938006;29;20871;-77
2022/04/11 12:06:03;;;;;;;0.70;0.70;;;16.80;44.40;;;;;;4921140;29;20936;-77
2022/04/11 12:08:31;;;;;;;0.60;0.60;;;17.10;44.40;;;;;;4937872;29;20534;-77
2022/04/11 12:10:59;;;;;;;0.70;0.70;;;17.10;43.70;;;;;;4938280;29;20940;-77
2022/04/11 12:13:28;;;;;;;0.60;0.60;;;17.00;43.70;;;;;;4937589;29;21010;-77
2022/04/11 12:16:06;;;;;;;0.80;0.70;;;16.60;43.90;;;;;;4937492;29;20543;-77
2022/04/11 12:18:52;;;;;;;0.60;0.60;;;16.80;45.40;;;;;;4937562;29;20542;-78
2022/04/11 12:21:28;;;;;;;0.70;0.60;;;16.90;44.50;;;;;;4937809;29;20466;-77
2022/04/11 12:23:55;;;;;;;0.70;0.50;;;16.80;43.00;;;;;;4937687;29;20503;-77
2022/04/11 12:26:26;;;;;;;1.33;0.60;;;17.00;45.00;;;;;;4937563;29;20463;-78
2022/04/11 12:28:53;;;;;;;0.70;0.70;;;17.00;43.80;;;;;;4937518;29;20440;-77
2022/04/11 12:31:21;;;;;;;0.67;0.60;;;17.10;42.80;;;;;;4938655;29;20546;-77
2022/04/11 12:33:49;;;;;;;0.70;0.70;;;17.10;44.70;;;;;;4940403;29;20453;-76
2022/04/11 12:36:20;;;;;;;1.10;0.80;;;17.30;44.80;;;;;;4941005;29;20490;-77
2022/04/11 12:38:52;;;;;;;0.60;0.60;;;17.20;43.10;;;;;;4940123;29;20471;-77
2022/04/11 12:41:36;;;;;;;0.70;0.70;;;17.20;44.80;;;;;;4939979;29;20456;-76
2022/04/11 12:44:09;;;;;;;1.33;0.80;;;17.70;43.80;;;;;;4941671;29;20519;-77
2022/04/11 12:46:37;;;;;;;0.70;0.70;;;17.50;43.10;;;;;;4939830;29;20479;-77
2022/04/11 12:49:05;;;;;;;0.67;0.60;;;17.20;43.30;;;;;;4939195;29;20464;-77
2022/04/11 12:51:33;;;;;;;0.70;0.70;;;17.50;43.40;;;;;;4939087;29;20871;-77
2022/04/11 12:54:05;;;;;;;0.70;0.60;;;17.80;42.60;;;;;;4940025;29;20459;-77
2022/04/11 12:56:40;;;;;;;0.70;0.70;;;18.20;43.30;;;;;;4939365;29;20480;-77
2022/04/11 12:59:07;;;;;;;0.70;0.60;;;18.40;42.50;;;;;;4939124;29;20439;-77
2022/04/11 13:01:56;;;;;;;0.70;0.70;;;18.40;40.80;;;;;;4940553;29;20451;-78
2022/04/11 13:04:23;;;;;;;0.70;0.70;;;18.00;40.40;;;;;;4939690;29;20448;-77
2022/04/11 13:06:52;;;;;;;0.60;0.60;;;17.90;41.70;;;;;;4941115;29;20480;-77
2022/04/11 13:09:20;;;;;;;0.70;0.60;;;17.50;40.70;;;;;;4939725;29;20450;-77
2022/04/11 13:11:48;;;;;;;0.73;0.70;;;17.60;43.50;;;;;;4939769;29;20472;-78
2022/04/11 13:14:15;;;;;;;0.70;0.70;;;18.10;43.60;;;;;;4940922;29;20451;-77
2022/04/11 13:19:26;;;;;;;0.70;0.60;;;18.80;42.30;;;;;;4940896;29;20404;-76
2022/04/11 13:21:54;;;;;;;0.70;0.63;;;18.80;40.40;;;;;;4938902;29;20456;-77
2022/04/11 13:24:21;;;;;;;1.07;0.70;;;18.80;40.20;;;;;;4939177;29;20974;-77
2022/04/11 13:26:48;;;;;;;0.80;0.60;;;18.80;41.00;;;;;;4939757;29;20475;-77
2022/04/11 13:29:15;;;;;;;0.70;0.60;;;19.00;41.20;;;;;;4940199;29;20944;-76
2022/04/11 13:31:42;;;;;;;0.60;0.60;;;19.20;40.70;;;;;;4939919;29;20451;-78
2022/04/11 13:34:09;;;;;;;0.70;0.60;;;19.50;40.10;;;;;;4938612;29;20448;-77
2022/04/11 13:36:36;;;;;;;0.70;0.67;;;19.70;39.90;;;;;;4940507;29;20471;-78
2022/04/11 13:39:05;;;;;;;0.70;0.70;;;19.40;39.80;;;;;;4940662;29;21010;-77
2022/04/11 13:41:32;;;;;;;0.67;0.60;;;19.20;40.80;;;;;;4939850;29;20452;-76
2022/04/11 13:44:00;;;;;;;1.17;0.60;;;19.70;40.10;;;;;;4940200;29;20472;-77
2022/04/11 13:46:27;;;;;;;0.70;0.60;;;20.00;41.00;;;;;;4939967;29;20468;-77
2022/04/11 13:48:55;;;;;;;0.70;0.67;;;20.10;40.90;;;;;;4939616;29;20948;-77
2022/04/11 13:51:22;;;;;;;0.70;0.70;;;20.00;39.80;;;;;;4939483;29;20448;-77
2022/04/11 13:53:49;;;;;;;0.80;0.60;;;20.00;39.20;;;;;;4940115;29;20451;-76
2022/04/11 13:56:17;;;;;;;0.80;0.80;;;20.10;39.50;;;;;;4940154;29;20475;-78
2022/04/11 13:58:44;;;;;;;0.60;0.57;;;20.20;39.40;;;;;;4940622;29;20483;-77
2022/04/11 14:01:11;;;;;;;0.70;0.67;;;20.40;40.30;;;;;;4939683;29;20463;-77
2022/04/11 14:03:38;;;;;;;0.80;0.60;;;20.00;38.60;;;;;;4939273;29;20447;-77
2022/04/11 14:06:05;;;;;;;1.03;0.60;;;20.40;38.80;;;;;;4939731;29;20491;-77
2022/04/11 14:08:31;;;;;;;0.70;0.60;;;20.80;38.50;;;;;;4940026;29;20451;-77
2022/04/11 14:10:58;;;;;;;0.67;0.60;;;21.00;37.90;;;;;;4940780;29;20539;-77
2022/04/11 14:13:26;;;;;;;0.70;0.67;;;20.70;38.10;;;;;;4940263;29;20975;-78
2022/04/11 14:15:55;;;;;;;0.70;0.67;;;20.60;38.20;;;;;;4943059;29;20489;-76
2022/04/11 14:18:21;;;;;;;0.70;0.67;;;20.40;38.60;;;;;;4944124;29;20511;-77
2022/04/11 14:20:49;;;;;;;0.60;0.57;;;20.30;39.20;;;;;;4944373;29;20459;-77
2022/04/11 14:23:17;;;;;;;0.70;0.67;;;20.30;39.70;;;;;;4945016;29;20451;-78
2022/04/11 14:25:44;;;;;;;0.70;0.60;;;20.30;40.10;;;;;;4943690;29;20468;-77
2022/04/11 14:28:10;;;;;;;0.70;0.70;;;20.10;39.20;;;;;;4943827;29;20862;-78
2022/04/11 14:30:39;;;;;;;0.70;0.60;;;20.40;39.20;;;;;;4943424;29;20956;-77
2022/04/11 14:33:06;;;;;;;1.10;0.70;;;20.80;37.90;;;;;;4941796;29;20458;-77
2022/04/11 14:35:33;;;;;;;0.80;0.60;;;20.90;37.50;;;;;;4939585;29;20471;-77
2022/04/11 14:38:00;;;;;;;0.70;0.67;;;20.70;37.10;;;;;;4939761;29;20483;-77
2022/04/11 14:40:26;;;;;;;0.87;0.80;;;20.80;37.00;;;;;;4939793;29;20459;-77
2022/04/11 14:42:56;;;;;;;0.70;0.60;;;21.00;37.80;;;;;;4939783;29;20451;-78
2022/04/11 14:45:23;;;;;;;0.70;0.70;;;21.40;36.90;;;;;;4939751;29;20475;-77
2022/04/11 14:47:51;;;;;;;0.70;0.70;;;21.70;36.60;;;;;;4939735;29;20484;-77
2022/04/11 14:50:17;;;;;;;0.70;0.70;;;22.00;36.00;;;;;;4939269;29;21010;-77
2022/04/11 14:52:44;;;;;;;0.70;0.63;;;22.50;36.10;;;;;;4939372;29;20499;-78
2022/04/11 14:55:11;;;;;;;0.70;0.67;;;23.30;35.40;;;;;;4939450;29;20858;-76
2022/04/11 14:57:38;;;;;;;0.70;0.60;;;24.10;34.20;;;;;;4939075;29;21017;-78
2022/04/11 15:00:05;;;;;;;0.70;0.63;;;24.50;33.10;;;;;;4940698;29;20447;-79
2022/04/11 15:02:32;;;;;;;0.70;0.60;;;25.00;32.70;;;;;;4939966;29;20816;-78
2022/04/11 15:05:01;;;;;;;0.87;0.70;;;25.20;32.60;;;;;;4939748;29;20452;-78
2022/04/11 15:07:27;;;;;;;0.80;0.60;;;25.50;32.70;;;;;;4939536;29;20511;-78
2022/04/11 15:09:54;;;;;;;0.70;0.70;;;26.50;31.90;;;;;;4939568;29;20447;-77
2022/04/11 15:12:21;;;;;;;0.70;0.70;;;27.00;29.80;;;;;;4939330;29;20541;-77
2022/04/11 15:14:47;;;;;;;0.70;0.70;;;26.40;30.00;;;;;;4938801;29;20474;-77
2022/04/11 15:17:14;;;;;;;0.80;0.70;;;25.40;31.40;;;;;;5037220;23;20503;-73
2022/04/11 15:19:41;;;;;;;0.70;0.70;;;25.60;32.20;;;;;;4938635;29;20491;-73
2022/04/11 15:22:09;;;;;;;0.70;0.50;;;25.90;31.70;;;;;;4938585;29;20499;-74
2022/04/11 15:24:36;;;;;;;0.70;0.60;;;25.80;32.20;;;;;;4938658;29;20452;-73
2022/04/11 15:27:04;;;;;;;0.80;0.77;;;25.80;32.10;;;;;;4939227;29;20484;-73
2022/04/11 15:29:32;;;;;;;1.00;0.70;;;25.10;32.70;;;;;;4938477;29;20514;-74
2022/04/11 15:32:02;;;;;;;0.70;0.70;;;24.90;33.30;;;;;;4938022;29;20920;-73
2022/04/11 15:34:28;;;;;;;0.70;0.60;;;24.00;32.50;;;;;;4938332;29;20451;-74
2022/04/11 15:36:55;;;;;;;0.70;0.70;;;23.60;34.90;;;;;;4937981;29;20531;-73
2022/04/11 15:39:23;;;;;;;0.97;0.70;;;22.70;35.40;;;;;;4938804;29;20483;-73
2022/04/11 15:41:50;;;;;;;0.70;0.70;;;22.00;36.60;;;;;;4938628;29;20531;-73
2022/04/11 15:44:17;;;;;;;0.70;0.60;;;21.20;37.80;;;;;;4938409;29;20451;-73
2022/04/11 15:46:44;;;;;;;0.70;0.70;;;20.40;38.70;;;;;;4938205;29;20817;-73
2022/04/11 15:49:11;;;;;;;0.87;0.80;;;20.00;40.00;;;;;;4937984;29;20452;-73
2022/04/11 15:51:38;;;;;;;0.70;0.70;;;19.60;40.30;;;;;;4938034;29;20528;-72
2022/04/11 15:54:06;;;;;;;0.70;0.70;;;19.40;41.50;;;;;;4938028;29;20466;-73
2022/04/11 15:56:34;;;;;;;0.67;0.60;;;19.00;41.00;;;;;;4937818;29;20475;-72
2022/04/11 15:59:01;;;;;;;0.80;0.80;;;18.70;41.60;;;;;;4937488;29;20491;-73
2022/04/11 16:01:28;;;;;;;0.70;0.70;;;18.60;42.20;;;;;;4937512;29;20940;-73